Domov               UVHVVR             MKGP            O straneh              
ZDRAVSTVENO VARSTVO RASTLIN
  MREŽA AGROMET. POSTAJ
 ► PROGNOSTIČNA OBVESTILA
AGROMETEOROLOŠKI PODATKI -
ARSO
OBVLADOVANJE TVEGANJ ZARADI
NEUGODNIH VREMENSKIH RAZMER
  ► NARAVNE NESREČE
  ► SUŠA/MOČA
  ► NAMAKANJE
  ► ŽLED (gozdarstvo)
KARTOGRAFSKI PRIKAZI
SPLETNE POVEZAVE
PROJEKTI IN PUBLIKACIJE

AGROMETEOROLOŠKA MREŽA: VREMENSKE POSTAJE IN FENOLOŠKA OPAZOVANJA

Pregled podatkov za lokacijo Maribor - BTŠ, meteorološka postaja 35810

Pregled senzorjev na lokaciji

ID Ime Zadnja
vrednost
Datum in čas
zadnje
spremembe
(Lokalni čas)
Tip
senzorja
4297 Omočenost lista (U) 0 U 7.8.2020 23:30 A730WET
1723 Padavine (mm) 0 mm 7.8.2020 23:30 Generic 0.2 mm
1722 Relativna vlaga 2 m (% RH) 77.26 % RH 7.8.2020 23:30 Generic 0 - 100 %
1721 Temperatura 2 m (°C) 21.34 °C 7.8.2020 23:30 Generic -40 - +60 °C
4296 Smer vetra (°) 301.45 ° 7.8.2020 23:30 Generic 0 - 360
4295 Hitrost vetra (km/h) 2.98 km/h 7.8.2020 23:30 Generic 100 km/h

Pregled podatkov zadnjih 24 ur

Zap.
št.
Datum in čas
(Centralno
evropski čas)
Maribor - BTŠ
Omočenost
lista
Padavine Relativna
vlaga
2
m
Temperatura
2
m
Smer
vetra
Hitrost
vetra
1 8.8.2020 00:00
2 7.8.2020 23:30
3 7.8.2020 23:00
4 7.8.2020 22:30 0 0 77.3 21.3 301.5 3
5 7.8.2020 22:00 0 0 77 21.6 312.2 2.6
6 7.8.2020 21:30 0 0 77.2 21.7 312 2.8
7 7.8.2020 21:00 0 0 77.2 22 303.2 2.5
8 7.8.2020 20:30 0 0 77.7 22.2 315.3 1.8
9 7.8.2020 20:00 0 0 83.3 21.7 305.4 1.4
10 7.8.2020 19:30 0 0 82.7 22.6 276.3 0.9
11 7.8.2020 19:00 0 0 72.8 25.1 310.1 0.9
12 7.8.2020 18:30 0 0 62.3 27.3 328.1 0.6
13 7.8.2020 18:00 0 0 56.1 28.6 327.6 0.8
14 7.8.2020 17:30 0 0 51.2 28.8 249.1 1.4
15 7.8.2020 17:00 0 0 50.9 29.3 125.2 1.6
16 7.8.2020 16:30 0 0 50.5 30 107.1 1.7
17 7.8.2020 16:00 0 0 49 30.4 144.6 1.6
18 7.8.2020 15:30 0 0 48.1 30.6 113.1 1.9
19 7.8.2020 15:00 0 0 50.6 30.4 140.1 1.9
20 7.8.2020 14:30 0 0 50.9 30.4 193.5 2.1
21 7.8.2020 14:00 0 0 51.6 30.2 185.9 1.8
22 7.8.2020 13:30 0 0 53.6 29.8 39.1 1.6
23 7.8.2020 13:00 0 0 57.2 29.1 158.9 2.2
24 7.8.2020 12:30 0 0 58.2 28.4 248.6 2.4
25 7.8.2020 12:00 0 0 57.4 28.3 296.5 2.3
26 7.8.2020 11:30 0 0 57.7 27.7 260.9 3.5
27 7.8.2020 11:00 0 0 57.5 27.5 263.5 3
28 7.8.2020 10:30 0 0 58.2 26.9 284 2.7
29 7.8.2020 10:00 0 0 58.8 26.4 287.3 2.6
30 7.8.2020 09:30 0 0 65 25.6 267.1 2.6
31 7.8.2020 09:00 0 0 73.5 24.1 286.2 2.6
32 7.8.2020 08:30 0 0 77.6 22.7 299.5 3.4
33 7.8.2020 08:00 0 0 80.6 21.5 304.4 2.9
34 7.8.2020 07:30 0 0 82.7 20.6 313 3.3
35 7.8.2020 07:00 0 0 86.8 19.4 321.8 3.6
36 7.8.2020 06:30 0 0 88.6 18.9 294.9 3.7
37 7.8.2020 06:00 0 0 90.9 18.4 321.7 4.1
38 7.8.2020 05:30 0 0 91.2 18.3 286.8 3.5
39 7.8.2020 05:00 0 0 91 18.3 327 3.5
40 7.8.2020 04:30 0 0 91.5 18.3 314.4 4.2
41 7.8.2020 04:00 0 0 91.8 18.4 318.9 4
42 7.8.2020 03:30 0 0 91.2 18.6 316.1 3.8
43 7.8.2020 03:00 0 0 91.4 18.7 303.3 4.3
44 7.8.2020 02:30 0 0 91.7 18.8 308.3 3.6
45 7.8.2020 02:00 0 0 91.9 18.9 289.8 3.8
46 7.8.2020 01:30 0 0 92.1 18.9 294.7 3.4
47 7.8.2020 01:00 0 0 92.2 19 276 3.5
48 7.8.2020 00:30 0 0 92.1 19.1 283.2 3.6
© 2011 Ministrstvo za kmetijstvo, gozdarstvo in prehrano. Vse pravice pridržane.